Time;durP1;ratioP1;P1;durP2;ratioP2;P2;SDS_P1;SDS_P2;PMS_P1;PMS_P2;Temp;Humidity;BMP_temperature;BMP_pressure;BME280_temperature;BME280_humidity;BME280_pressure;Samples;Min_cycle;Max_cycle;Signal;HPM_P1;HPM_P2
2022/04/17 00:00:26;;;;;;;9.98;4.97;;;;;;;;;;4994707;28;20502;-61
2022/04/17 00:02:52;;;;;;;13.23;5.25;;;;;;;;;;4994467;28;20042;-60
2022/04/17 00:05:18;;;;;;;41.60;11.23;;;;;;;;;;4985428;28;20443;-62
2022/04/17 00:07:44;;;;;;;19.35;7.82;;;;;;;;;;4985161;28;20026;-62
2022/04/17 00:10:10;;;;;;;59.38;16.30;;;;;;;;;;4994554;28;20085;-62
2022/04/17 00:12:36;;;;;;;37.88;12.77;;;;;;;;;;4994711;28;20041;-62
2022/04/17 00:15:03;;;;;;;29.65;10.00;;;;;;;;;;4994372;28;20022;-62
2022/04/17 00:17:29;;;;;;;21.10;8.93;;;;;;;;;;4994739;28;20476;-62
2022/04/17 00:19:55;;;;;;;18.45;7.97;;;;;;;;;;4991835;28;20022;-62
2022/04/17 00:22:20;;;;;;;14.48;6.80;;;;;;;;;;4994362;28;20149;-63
2022/04/17 00:24:46;;;;;;;10.25;4.90;;;;;;;;;;4976311;28;20027;-63
2022/04/17 00:27:11;;;;;;;13.30;5.30;;;;;;;;;;4993972;28;20115;-63
2022/04/17 00:29:37;;;;;;;15.10;6.10;;;;;;;;;;4994620;28;20019;-63
2022/04/17 00:32:03;;;;;;;14.65;6.95;;;;;;;;;;4994678;28;20491;-63
2022/04/17 00:34:31;;;;;;;11.80;6.65;;;;;;;;;;4994381;28;20069;-62
2022/04/17 00:37:00;;;;;;;18.55;7.20;;;;;;;;;;4994577;28;20036;-62
2022/04/17 00:39:28;;;;;;;13.23;6.32;;;;;;;;;;4994385;28;20026;-61
2022/04/17 00:41:54;;;;;;;13.75;6.90;;;;;;;;;;4994178;28;20033;-62
2022/04/17 00:44:20;;;;;;;14.95;6.95;;;;;;;;;;4994432;28;20030;-62
2022/04/17 00:46:45;;;;;;;13.77;7.15;;;;;;;;;;4994414;28;20395;-61
2022/04/17 00:49:11;;;;;;;15.98;6.90;;;;;;;;;;4994226;28;20026;-62
2022/04/17 00:51:37;;;;;;;15.85;7.85;;;;;;;;;;4992959;28;20034;-62
2022/04/17 00:54:05;;;;;;;16.08;8.70;;;;;;;;;;4994035;28;20073;-63
2022/04/17 00:56:31;;;;;;;17.20;9.20;;;;;;;;;;4994020;28;20018;-62
2022/04/17 00:58:57;;;;;;;19.23;9.77;;;;;;;;;;4994021;28;20022;-62
2022/04/17 01:01:22;;;;;;;25.10;9.50;;;;;;;;;;4994082;28;20393;-62
2022/04/17 01:03:49;;;;;;;18.33;8.13;;;;;;;;;;4993921;28;20045;-63
2022/04/17 01:06:15;;;;;;;18.13;8.25;;;;;;;;;;4994037;28;20385;-62
2022/04/17 01:08:41;;;;;;;17.25;8.40;;;;;;;;;;4993957;28;20030;-62
2022/04/17 01:11:13;;;;;;;18.83;8.77;;;;;;;;;;4993526;28;20088;-62
2022/04/17 01:13:40;;;;;;;18.40;8.32;;;;;;;;;;4993797;28;20503;-62
2022/04/17 01:16:06;;;;;;;16.33;8.00;;;;;;;;;;4993800;28;20176;-62
2022/04/17 01:18:57;;;;;;;17.95;7.88;;;;;;;;;;4993979;28;20468;-63
2022/04/17 01:21:26;;;;;;;16.92;7.60;;;;;;;;;;4993591;28;20030;-62
2022/04/17 01:29:21;;;;;;;15.07;8.18;;;;;;;;;;4993975;28;20376;-60
2022/04/17 01:31:46;;;;;;;15.38;8.45;;;;;;;;;;4993482;28;20110;-62
2022/04/17 01:34:16;;;;;;;15.38;8.02;;;;;;;;;;4993360;28;20034;-63
2022/04/17 01:36:43;;;;;;;18.13;8.27;;;;;;;;;;4993449;28;20126;-61
2022/04/17 01:39:09;;;;;;;15.40;8.15;;;;;;;;;;4992869;28;20533;-60
2022/04/17 01:41:35;;;;;;;17.83;8.55;;;;;;;;;;4993121;28;20121;-62
2022/04/17 01:44:00;;;;;;;14.20;7.40;;;;;;;;;;4993264;28;20081;-63
2022/04/17 01:46:25;;;;;;;16.33;7.78;;;;;;;;;;4993162;28;20026;-62
2022/04/17 01:48:51;;;;;;;14.13;7.85;;;;;;;;;;4993174;28;20041;-61
2022/04/17 01:51:16;;;;;;;17.05;8.55;;;;;;;;;;4993028;28;20029;-62
2022/04/17 01:53:42;;;;;;;17.45;7.57;;;;;;;;;;4991430;28;20515;-63
2022/04/17 01:56:07;;;;;;;15.10;7.15;;;;;;;;;;4993083;28;20026;-63
2022/04/17 01:58:33;;;;;;;13.48;7.32;;;;;;;;;;4992909;28;20030;-62
2022/04/17 02:00:58;;;;;;;13.48;7.38;;;;;;;;;;4993042;28;20101;-62
2022/04/17 02:03:24;;;;;;;10.93;6.30;;;;;;;;;;4992616;28;20408;-62
2022/04/17 02:05:49;;;;;;;11.95;6.60;;;;;;;;;;4992292;28;20034;-62
2022/04/17 02:08:16;;;;;;;14.02;6.50;;;;;;;;;;4992608;28;20105;-62
2022/04/17 02:10:42;;;;;;;14.60;6.70;;;;;;;;;;4992809;28;20026;-63
2022/04/17 02:13:07;;;;;;;14.70;6.35;;;;;;;;;;4992545;28;20065;-62
2022/04/17 02:15:33;;;;;;;13.95;6.53;;;;;;;;;;4993278;28;20046;-63
2022/04/17 02:17:59;;;;;;;12.27;6.68;;;;;;;;;;4992578;28;20535;-63
2022/04/17 02:20:25;;;;;;;11.95;6.00;;;;;;;;;;4992589;28;20022;-62
2022/04/17 02:22:50;;;;;;;13.18;7.20;;;;;;;;;;4992559;28;20026;-62
2022/04/17 02:25:16;;;;;;;13.55;6.25;;;;;;;;;;4992335;28;20430;-62
2022/04/17 02:27:41;;;;;;;12.60;6.60;;;;;;;;;;4993022;28;20050;-62
2022/04/17 02:30:08;;;;;;;14.60;7.10;;;;;;;;;;4992462;28;20073;-61
2022/04/17 02:32:34;;;;;;;14.18;6.93;;;;;;;;;;4992383;28;20022;-63
2022/04/17 02:35:00;;;;;;;12.13;7.13;;;;;;;;;;4992244;28;20030;-62
2022/04/17 02:37:25;;;;;;;15.07;7.00;;;;;;;;;;4991328;28;20061;-62
2022/04/17 02:39:51;;;;;;;13.63;7.03;;;;;;;;;;4992205;28;20029;-62
2022/04/17 02:42:16;;;;;;;15.20;8.43;;;;;;;;;;4992095;28;20160;-60
2022/04/17 02:44:42;;;;;;;15.30;8.70;;;;;;;;;;4992325;28;20364;-60
2022/04/17 02:49:51;;;;;;;22.20;8.77;;;;;;;;;;4991920;28;20034;-60
2022/04/17 02:52:17;;;;;;;15.95;8.15;;;;;;;;;;4991926;28;20022;-63
2022/04/17 02:54:42;;;;;;;14.60;8.35;;;;;;;;;;4992142;28;20034;-63
2022/04/17 02:57:08;;;;;;;12.32;7.55;;;;;;;;;;4991874;28;20376;-60
2022/04/17 02:59:33;;;;;;;14.13;7.32;;;;;;;;;;4991893;28;20487;-62
2022/04/17 03:07:29;;;;;;;11.35;6.82;;;;;;;;;;4991861;28;20032;-60
2022/04/17 03:09:54;;;;;;;15.23;6.80;;;;;;;;;;4991808;28;20030;-62
2022/04/17 03:12:20;;;;;;;13.30;7.63;;;;;;;;;;4991966;28;20483;-63
2022/04/17 03:14:46;;;;;;;13.80;7.22;;;;;;;;;;4991941;28;20064;-62
2022/04/17 03:17:12;;;;;;;13.63;7.75;;;;;;;;;;4992506;28;20058;-63
2022/04/17 03:19:38;;;;;;;15.60;7.72;;;;;;;;;;4995910;28;20036;-62
2022/04/17 03:22:04;;;;;;;13.98;7.25;;;;;;;;;;4995748;28;20023;-63
2022/04/17 03:24:31;;;;;;;15.25;7.13;;;;;;;;;;4995837;28;20065;-62
2022/04/17 03:26:57;;;;;;;13.48;7.80;;;;;;;;;;4995606;28;20209;-62
2022/04/17 03:29:23;;;;;;;14.52;8.07;;;;;;;;;;4995730;28;20022;-61
2022/04/17 03:31:48;;;;;;;13.85;7.38;;;;;;;;;;4995657;28;20128;-63
2022/04/17 03:34:14;;;;;;;13.75;8.10;;;;;;;;;;4995597;28;20036;-60
2022/04/17 03:36:40;;;;;;;13.52;8.07;;;;;;;;;;4995465;28;20030;-62
2022/04/17 03:39:06;;;;;;;13.60;7.43;;;;;;;;;;4995646;28;20077;-60
2022/04/17 03:41:32;;;;;;;12.38;7.38;;;;;;;;;;4995284;28;20026;-62
2022/04/17 03:43:57;;;;;;;18.00;7.07;;;;;;;;;;4995608;28;20033;-61
2022/04/17 03:46:23;;;;;;;13.68;6.78;;;;;;;;;;4995442;28;20026;-60
2022/04/17 03:48:48;;;;;;;14.43;7.18;;;;;;;;;;4995115;28;20026;-61
2022/04/17 03:51:14;;;;;;;13.48;7.38;;;;;;;;;;4995327;28;20030;-62
2022/04/17 03:53:40;;;;;;;15.70;7.80;;;;;;;;;;4995213;28;20026;-62
2022/04/17 03:56:05;;;;;;;13.93;8.70;;;;;;;;;;4995330;28;20037;-62
2022/04/17 03:58:31;;;;;;;14.10;8.02;;;;;;;;;;4993904;28;20023;-62
2022/04/17 04:00:56;;;;;;;14.82;8.02;;;;;;;;;;4995154;28;20114;-62
2022/04/17 04:03:22;;;;;;;15.68;9.25;;;;;;;;;;4994752;28;20412;-62
2022/04/17 04:05:47;;;;;;;14.10;8.80;;;;;;;;;;4995128;28;20041;-60
2022/04/17 04:08:13;;;;;;;16.70;9.52;;;;;;;;;;4995050;28;20443;-60
2022/04/17 04:10:38;;;;;;;15.57;9.55;;;;;;;;;;4994931;28;20029;-61
2022/04/17 04:13:04;;;;;;;19.95;10.38;;;;;;;;;;4994745;28;20026;-63
2022/04/17 04:15:30;;;;;;;18.02;10.07;;;;;;;;;;4994392;28;20018;-63
2022/04/17 04:17:55;;;;;;;69.55;30.77;;;;;;;;;;4994782;28;20439;-63
2022/04/17 04:20:21;;;;;;;18.58;11.63;;;;;;;;;;4994842;28;20026;-63
2022/04/17 04:22:46;;;;;;;17.50;10.60;;;;;;;;;;4994871;28;20022;-63
2022/04/17 04:25:12;;;;;;;18.30;10.50;;;;;;;;;;4994727;28;20391;-64
2022/04/17 04:30:21;;;;;;;16.58;9.27;;;;;;;;;;4994692;28;20053;-63
2022/04/17 04:32:56;;;;;;;16.55;8.98;;;;;;;;;;4994481;28;20444;-61
2022/04/17 04:35:22;;;;;;;11.60;8.40;;;;;;;;;;4994533;28;20451;-61
2022/04/17 04:37:48;;;;;;;19.60;8.30;;;;;;;;;;4994534;28;20369;-63
2022/04/17 04:40:15;;;;;;;14.05;8.18;;;;;;;;;;4994523;28;20122;-62
2022/04/17 04:42:41;;;;;;;12.38;8.18;;;;;;;;;;4994276;28;20591;-62
2022/04/17 04:47:51;;;;;;;13.65;8.23;;;;;;;;;;4994257;28;20291;-61
2022/04/17 04:50:16;;;;;;;17.65;8.48;;;;;;;;;;4994515;28;20319;-61
2022/04/17 04:52:42;;;;;;;14.57;8.95;;;;;;;;;;4994334;28;20022;-63
2022/04/17 04:55:08;;;;;;;17.95;10.20;;;;;;;;;;4994221;28;20031;-63
2022/04/17 04:57:37;;;;;;;19.20;9.82;;;;;;;;;;4994246;28;20022;-63
2022/04/17 05:00:07;;;;;;;17.02;9.30;;;;;;;;;;4994026;28;20088;-61
2022/04/17 05:02:37;;;;;;;15.32;9.10;;;;;;;;;;4993555;28;20032;-63
2022/04/17 05:05:07;;;;;;;16.42;9.20;;;;;;;;;;4993968;28;20500;-60
2022/04/17 05:07:33;;;;;;;19.48;10.48;;;;;;;;;;4993946;28;20565;-63
2022/04/17 05:10:00;;;;;;;18.23;9.80;;;;;;;;;;4993942;28;20031;-62
2022/04/17 05:12:27;;;;;;;16.73;9.20;;;;;;;;;;4993874;28;20057;-62
2022/04/17 05:14:53;;;;;;;16.67;7.95;;;;;;;;;;4993855;28;20026;-61
2022/04/17 05:17:19;;;;;;;14.35;8.05;;;;;;;;;;4993342;28;20490;-61
2022/04/17 05:19:45;;;;;;;16.50;8.40;;;;;;;;;;4993368;28;20476;-60
2022/04/17 05:22:15;;;;;;;16.10;7.75;;;;;;;;;;4993916;28;20117;-61
2022/04/17 05:24:44;;;;;;;12.05;7.95;;;;;;;;;;4993772;28;20023;-63
2022/04/17 05:27:10;;;;;;;14.75;7.50;;;;;;;;;;4992373;28;20423;-63
2022/04/17 05:29:36;;;;;;;11.75;6.72;;;;;;;;;;4993697;28;20085;-62
2022/04/17 05:32:02;;;;;;;15.82;8.50;;;;;;;;;;4993406;28;20030;-61
2022/04/17 05:34:27;;;;;;;17.25;8.95;;;;;;;;;;4993468;28;20468;-61
2022/04/17 05:36:53;;;;;;;13.80;8.18;;;;;;;;;;4993295;28;20023;-63
2022/04/17 05:39:19;;;;;;;14.32;7.80;;;;;;;;;;4993179;28;20439;-60
2022/04/17 05:41:45;;;;;;;14.38;7.35;;;;;;;;;;4992553;28;20109;-63
2022/04/17 05:44:12;;;;;;;12.73;7.22;;;;;;;;;;4993415;28;20080;-63
2022/04/17 05:46:40;;;;;;;12.73;8.02;;;;;;;;;;4993385;28;20463;-62
2022/04/17 05:49:07;;;;;;;10.48;6.93;;;;;;;;;;4993206;28;20049;-63
2022/04/17 05:51:37;;;;;;;11.30;7.30;;;;;;;;;;4993189;28;20411;-63
2022/04/17 05:54:07;;;;;;;12.23;6.53;;;;;;;;;;4993116;28;20049;-63
2022/04/17 05:56:35;;;;;;;13.57;6.27;;;;;;;;;;4993179;28;20041;-63
2022/04/17 05:59:00;;;;;;;10.30;6.43;;;;;;;;;;4993049;28;20029;-62
2022/04/17 06:01:26;;;;;;;9.40;5.75;;;;;;;;;;4992773;28;20365;-63
2022/04/17 06:03:52;;;;;;;9.98;6.05;;;;;;;;;;4992726;28;20050;-63
2022/04/17 06:06:20;;;;;;;12.50;6.10;;;;;;;;;;4992848;28;20081;-61
2022/04/17 06:08:46;;;;;;;11.32;6.43;;;;;;;;;;4992589;28;20023;-61
2022/04/17 06:11:12;;;;;;;8.70;5.45;;;;;;;;;;4992794;28;20096;-63
2022/04/17 06:13:38;;;;;;;8.43;5.00;;;;;;;;;;4992658;28;20027;-61
2022/04/17 06:16:04;;;;;;;7.97;4.68;;;;;;;;;;4992750;28;20030;-63
2022/04/17 06:18:30;;;;;;;10.23;5.03;;;;;;;;;;4992145;28;20038;-62
2022/04/17 06:20:56;;;;;;;10.40;5.90;;;;;;;;;;4992827;28;20049;-63
2022/04/17 06:23:22;;;;;;;12.27;6.32;;;;;;;;;;4992530;28;20572;-61
2022/04/17 06:25:47;;;;;;;12.07;6.22;;;;;;;;;;4991152;28;20038;-62
2022/04/17 06:28:13;;;;;;;9.20;6.25;;;;;;;;;;4992555;28;20030;-63
2022/04/17 06:30:39;;;;;;;11.95;6.65;;;;;;;;;;4992188;28;20468;-61
2022/04/17 06:33:04;;;;;;;10.20;6.07;;;;;;;;;;4992508;28;20492;-61
2022/04/17 06:35:30;;;;;;;10.15;5.70;;;;;;;;;;4992416;28;20499;-62
2022/04/17 06:38:01;;;;;;;11.90;6.47;;;;;;;;;;4992279;28;20041;-58
2022/04/17 06:40:36;;;;;;;12.82;7.25;;;;;;;;;;4992060;28;20022;-63
2022/04/17 06:43:05;;;;;;;15.20;7.82;;;;;;;;;;4992044;28;20048;-61
2022/04/17 06:45:33;;;;;;;11.75;7.63;;;;;;;;;;4992140;28;20127;-60
2022/04/17 06:48:11;;;;;;;18.45;6.88;;;;;;;;;;4992369;28;20383;-59
2022/04/17 06:50:36;;;;;;;23.52;13.00;;;;;;;;;;4992144;28;20034;-59
2022/04/17 06:53:03;;;;;;;18.50;8.55;;;;;;;;;;4991845;28;20498;-60
2022/04/17 06:55:28;;;;;;;8.32;4.90;;;;;;;;;;4991819;28;20041;-60
2022/04/17 06:57:54;;;;;;;12.18;6.43;;;;;;;;;;4991758;28;20192;-61
2022/04/17 07:00:21;;;;;;;11.45;6.93;;;;;;;;;;4992027;28;20054;-60
2022/04/17 07:02:47;;;;;;;5.68;4.35;;;;;;;;;;4991714;28;20030;-61
2022/04/17 07:05:13;;;;;;;7.18;5.10;;;;;;;;;;4991805;28;20023;-61
2022/04/17 07:07:39;;;;;;;7.55;4.55;;;;;;;;;;4991745;28;20793;-62
2022/04/17 07:10:05;;;;;;;7.70;4.75;;;;;;;;;;4991831;28;20081;-61
2022/04/17 07:12:31;;;;;;;7.70;4.90;;;;;;;;;;4991670;28;20057;-61
2022/04/17 07:15:00;;;;;;;8.32;4.85;;;;;;;;;;4991863;28;20479;-60
2022/04/17 07:17:37;;;;;;;7.28;4.78;;;;;;;;;;4991774;28;20037;-59
2022/04/17 07:20:07;;;;;;;6.43;4.40;;;;;;;;;;4991939;28;20023;-61
2022/04/17 07:22:36;;;;;;;;;;;;;;;;;;4991910;28;20050;-62
2022/04/17 07:25:03;;;;;;;5.63;4.28;;;;;;;;;;4991523;28;19914;-62
2022/04/17 07:27:39;;;;;;;6.53;4.97;;;;;;;;;;4991356;28;20058;-61
2022/04/17 07:30:09;;;;;;;6.63;4.70;;;;;;;;;;4991726;28;20057;-60
2022/04/17 07:32:34;;;;;;;6.60;4.40;;;;;;;;;;4991713;28;20034;-60
2022/04/17 07:35:00;;;;;;;7.72;4.90;;;;;;;;;;4991603;28;20034;-62
2022/04/17 07:37:32;;;;;;;5.22;4.45;;;;;;;;;;4991431;28;20434;-60
2022/04/17 07:39:57;;;;;;;6.68;4.60;;;;;;;;;;4991470;28;20058;-61
2022/04/17 07:42:23;;;;;;;7.03;4.72;;;;;;;;;;4991224;28;20069;-61
2022/04/17 07:44:48;;;;;;;6.10;3.80;;;;;;;;;;4991512;28;20022;-60
2022/04/17 07:47:15;;;;;;;6.05;4.47;;;;;;;;;;4991477;28;20033;-61
2022/04/17 07:49:41;;;;;;;5.63;4.10;;;;;;;;;;4991435;28;20022;-60
2022/04/17 07:52:07;;;;;;;6.22;4.13;;;;;;;;;;4991416;28;20109;-61
2022/04/17 07:54:33;;;;;;;6.22;4.07;;;;;;;;;;4991255;28;20448;-61
2022/04/17 07:56:58;;;;;;;6.78;4.07;;;;;;;;;;4991220;28;20035;-62
2022/04/17 07:59:25;;;;;;;7.43;4.40;;;;;;;;;;4991494;28;20048;-62
2022/04/17 08:01:50;;;;;;;6.43;4.50;;;;;;;;;;4991214;28;20034;-59
2022/04/17 08:04:16;;;;;;;5.88;4.40;;;;;;;;;;4993348;28;20050;-60
2022/04/17 08:06:42;;;;;;;5.03;4.03;;;;;;;;;;4994972;28;20472;-61
2022/04/17 08:09:07;;;;;;;6.35;4.00;;;;;;;;;;4994878;28;20066;-60
2022/04/17 08:11:34;;;;;;;6.47;4.43;;;;;;;;;;4994781;28;20031;-61
2022/04/17 08:13:59;;;;;;;7.40;4.57;;;;;;;;;;4994854;28;20026;-59
2022/04/17 08:16:25;;;;;;;5.60;3.97;;;;;;;;;;4994829;28;20022;-59
2022/04/17 08:18:50;;;;;;;6.13;4.07;;;;;;;;;;4994673;28;20026;-63
2022/04/17 08:21:16;;;;;;;5.63;4.63;;;;;;;;;;4994686;28;20052;-61
2022/04/17 08:23:42;;;;;;;4.85;3.97;;;;;;;;;;4994602;28;20038;-61
2022/04/17 08:26:07;;;;;;;5.28;4.28;;;;;;;;;;4994319;28;20029;-61
2022/04/17 08:28:33;;;;;;;4.35;3.90;;;;;;;;;;4994688;28;20026;-61
2022/04/17 08:30:59;;;;;;;5.78;4.30;;;;;;;;;;4994361;28;20487;-61
2022/04/17 08:33:26;;;;;;;5.15;4.03;;;;;;;;;;4994616;28;20325;-61
2022/04/17 08:35:53;;;;;;;5.10;4.28;;;;;;;;;;4994533;28;20100;-60
2022/04/17 08:38:19;;;;;;;5.75;4.38;;;;;;;;;;4994420;28;20026;-62
2022/04/17 08:40:45;;;;;;;5.15;3.70;;;;;;;;;;4994098;28;20019;-61
2022/04/17 08:43:11;;;;;;;5.03;4.13;;;;;;;;;;4994372;28;20052;-61
2022/04/17 08:45:37;;;;;;;4.60;3.70;;;;;;;;;;4994200;28;20356;-60
2022/04/17 08:48:04;;;;;;;4.97;3.97;;;;;;;;;;4994505;28;20146;-61
2022/04/17 08:50:30;;;;;;;8.13;4.50;;;;;;;;;;4994245;28;20034;-60
2022/04/17 08:52:58;;;;;;;7.15;5.43;;;;;;;;;;4994209;28;20511;-62
2022/04/17 08:55:24;;;;;;;6.10;4.47;;;;;;;;;;4993749;28;20054;-62
2022/04/17 08:57:49;;;;;;;13.55;8.82;;;;;;;;;;4994035;28;20053;-61
2022/04/17 09:00:17;;;;;;;7.35;5.20;;;;;;;;;;4997098;28;20056;-64
2022/04/17 09:02:44;;;;;;;7.63;4.38;;;;;;;;;;5007672;28;20026;-61
2022/04/17 09:05:11;;;;;;;6.07;4.00;;;;;;;;;;5003146;28;20029;-61
2022/04/17 09:07:41;;;;;;;5.50;4.03;;;;;;;;;;5000254;28;20080;-63
2022/04/17 09:10:07;;;;;;;4.87;3.97;;;;;;;;;;5009435;28;20057;-64
2022/04/17 09:12:33;;;;;;;5.35;4.22;;;;;;;;;;4997948;28;20049;-64
2022/04/17 09:14:59;;;;;;;6.18;3.80;;;;;;;;;;5005377;28;20022;-61
2022/04/17 09:17:34;;;;;;;4.72;4.05;;;;;;;;;;5004818;28;20175;-64
2022/04/17 09:20:01;;;;;;;4.07;3.63;;;;;;;;;;4996807;28;20026;-60
2022/04/17 09:22:55;;;;;;;5.80;4.05;;;;;;;;;;4980392;28;20018;-63
2022/04/17 09:25:26;;;;;;;5.18;3.80;;;;;;;;;;5002012;28;20022;-62
2022/04/17 09:28:07;;;;;;;7.63;4.05;;;;;;;;;;5007951;28;20033;-61
2022/04/17 09:30:39;;;;;;;6.30;3.90;;;;;;;;;;4982145;28;20033;-64
2022/04/17 09:33:06;;;;;;;5.03;4.03;;;;;;;;;;5004378;28;20022;-61
2022/04/17 09:35:32;;;;;;;6.32;4.35;;;;;;;;;;5005260;28;20030;-63
2022/04/17 09:37:59;;;;;;;4.68;3.90;;;;;;;;;;4996691;28;20137;-64
2022/04/17 09:40:31;;;;;;;4.75;3.88;;;;;;;;;;5008680;28;20027;-60
2022/04/17 09:43:15;;;;;;;7.07;3.92;;;;;;;;;;5000218;28;20475;-61
2022/04/17 09:46:08;;;;;;;6.88;3.63;;;;;;;;;;5012613;28;20091;-61
2022/04/17 09:48:38;;;;;;;5.53;3.83;;;;;;;;;;5009518;28;20022;-62
2022/04/17 09:51:30;;;;;;;5.53;3.63;;;;;;;;;;5007921;28;20029;-63
2022/04/17 09:53:57;;;;;;;5.10;3.55;;;;;;;;;;5011369;28;20069;-62
2022/04/17 09:56:34;;;;;;;5.20;3.85;;;;;;;;;;5011541;28;20022;-63
2022/04/17 09:59:01;;;;;;;8.65;3.67;;;;;;;;;;5012377;28;20068;-62
2022/04/17 10:01:27;;;;;;;5.50;3.88;;;;;;;;;;5011671;28;20097;-62
2022/04/17 10:03:55;;;;;;;7.03;3.72;;;;;;;;;;5011795;28;20125;-63
2022/04/17 10:06:22;;;;;;;4.88;3.55;;;;;;;;;;5011835;28;20026;-63
2022/04/17 10:08:48;;;;;;;5.15;3.45;;;;;;;;;;5012266;28;20026;-63
2022/04/17 10:11:14;;;;;;;4.55;3.30;;;;;;;;;;5011695;28;20030;-62
2022/04/17 10:13:41;;;;;;;5.97;3.55;;;;;;;;;;5012058;28;20026;-62
2022/04/17 10:16:10;;;;;;;6.32;4.05;;;;;;;;;;5012281;28;20475;-62
2022/04/17 10:18:39;;;;;;;5.28;3.90;;;;;;;;;;5012198;28;20450;-62
2022/04/17 10:21:06;;;;;;;5.13;3.58;;;;;;;;;;5012067;28;20456;-65
2022/04/17 10:23:36;;;;;;;5.95;3.60;;;;;;;;;;5012003;28;20084;-62
2022/04/17 10:26:03;;;;;;;6.70;3.90;;;;;;;;;;5001989;28;20018;-64
2022/04/17 10:28:39;;;;;;;5.88;3.13;;;;;;;;;;4992475;28;20105;-62
2022/04/17 10:31:17;;;;;;;5.70;4.00;;;;;;;;;;4992336;28;20022;-61
2022/04/17 10:34:07;;;;;;;6.25;3.80;;;;;;;;;;4992207;28;20495;-63
2022/04/17 10:37:09;;;;;;;5.07;3.83;;;;;;;;;;4992355;28;20468;-61
2022/04/17 10:39:45;;;;;;;4.78;3.50;;;;;;;;;;4992197;28;20480;-61
2022/04/17 10:42:11;;;;;;;4.93;3.63;;;;;;;;;;4991945;28;20034;-61
2022/04/17 10:44:41;;;;;;;5.78;3.60;;;;;;;;;;4991930;28;20048;-62
2022/04/17 10:47:15;;;;;;;6.10;4.07;;;;;;;;;;4992180;28;20038;-61
2022/04/17 10:49:56;;;;;;;5.75;3.05;;;;;;;;;;4991725;28;20057;-62
2022/04/17 10:52:28;;;;;;;;;;;;;;;;;;4992430;28;20415;-63
2022/04/17 10:54:53;;;;;;;4.38;2.97;;;;;;;;;;4991796;28;19969;-61
2022/04/17 10:57:25;;;;;;;4.35;3.28;;;;;;;;;;4991870;28;20415;-63
2022/04/17 11:00:25;;;;;;;5.68;3.25;;;;;;;;;;4991124;28;20022;-63
2022/04/17 11:02:50;;;;;;;5.53;3.28;;;;;;;;;;4991521;28;20130;-61
2022/04/17 11:08:22;;;;;;;4.53;3.45;;;;;;;;;;4991994;28;20077;-63
2022/04/17 11:10:54;;;;;;;4.90;3.30;;;;;;;;;;4990262;28;20044;-63
2022/04/17 11:13:21;;;;;;;5.32;3.40;;;;;;;;;;4991747;28;20114;-61
2022/04/17 11:15:55;;;;;;;4.90;3.30;;;;;;;;;;4991422;28;20031;-61
2022/04/17 11:18:24;;;;;;;5.05;2.97;;;;;;;;;;4991148;28;20022;-61
2022/04/17 11:20:56;;;;;;;4.72;2.83;;;;;;;;;;4991574;28;20026;-61
2022/04/17 11:23:46;;;;;;;5.30;3.60;;;;;;;;;;4991495;28;20041;-61
2022/04/17 11:26:15;;;;;;;5.45;3.42;;;;;;;;;;4991439;28;20037;-61
2022/04/17 11:28:40;;;;;;;5.03;3.70;;;;;;;;;;4991316;28;20058;-60
2022/04/17 11:31:06;;;;;;;4.68;3.30;;;;;;;;;;4991489;28;20073;-62
2022/04/17 11:33:32;;;;;;;4.63;2.97;;;;;;;;;;4991381;28;20031;-63
2022/04/17 11:35:58;;;;;;;5.53;3.13;;;;;;;;;;4991512;28;20113;-61
2022/04/17 11:38:24;;;;;;;4.85;3.47;;;;;;;;;;4992316;28;20079;-61
2022/04/17 11:40:50;;;;;;;4.28;3.10;;;;;;;;;;4994867;28;20033;-63
2022/04/17 11:43:17;;;;;;;4.53;3.50;;;;;;;;;;4995060;28;20031;-62
2022/04/17 11:45:45;;;;;;;4.38;3.08;;;;;;;;;;4995154;28;20113;-62
2022/04/17 11:48:12;;;;;;;3.85;2.67;;;;;;;;;;4994992;28;20108;-61
2022/04/17 11:50:40;;;;;;;4.35;2.90;;;;;;;;;;4995246;28;20100;-61
2022/04/17 11:53:10;;;;;;;3.83;2.90;;;;;;;;;;4994634;28;20030;-62
2022/04/17 11:55:39;;;;;;;;;;;;;;;;;;4995317;28;20365;-63
2022/04/17 11:58:10;;;;;;;5.93;4.60;;;;;;;;;;4995022;28;20498;-62
2022/04/17 12:00:36;;;;;;;8.77;3.05;;;;;;;;;;4995001;28;20495;-63
2022/04/17 12:03:05;;;;;;;17.58;6.97;;;;;;;;;;4994095;28;20042;-62
2022/04/17 12:05:31;;;;;;;9.93;3.90;;;;;;;;;;4994615;28;20106;-60
2022/04/17 12:08:06;;;;;;;16.25;8.63;;;;;;;;;;4994775;28;20077;-61
2022/04/17 12:10:32;;;;;;;6.80;3.42;;;;;;;;;;4994755;28;20088;-61
2022/04/17 12:12:58;;;;;;;12.32;6.90;;;;;;;;;;4994833;28;20446;-61
2022/04/17 12:15:24;;;;;;;4.57;3.30;;;;;;;;;;4994699;28;20069;-62
2022/04/17 12:17:59;;;;;;;7.97;4.22;;;;;;;;;;4994678;28;20034;-63
2022/04/17 12:20:26;;;;;;;3.38;2.40;;;;;;;;;;4994554;28;20019;-61
2022/04/17 12:22:51;;;;;;;3.25;2.40;;;;;;;;;;4994729;28;20026;-63
2022/04/17 12:25:20;;;;;;;6.32;4.15;;;;;;;;;;4994683;28;20022;-61
2022/04/17 12:27:47;;;;;;;4.68;2.50;;;;;;;;;;4994513;28;20133;-63
2022/04/17 12:30:12;;;;;;;3.17;1.80;;;;;;;;;;4994704;28;20097;-61
2022/04/17 12:32:45;;;;;;;7.00;3.53;;;;;;;;;;4994525;28;20110;-62
2022/04/17 12:35:14;;;;;;;4.63;2.80;;;;;;;;;;4994538;28;20113;-63
2022/04/17 12:37:40;;;;;;;3.47;2.33;;;;;;;;;;4994455;28;20088;-63
2022/04/17 12:40:14;;;;;;;4.82;2.00;;;;;;;;;;4994416;28;20476;-63
2022/04/17 12:42:40;;;;;;;3.63;2.10;;;;;;;;;;4994292;28;20034;-61
2022/04/17 12:45:08;;;;;;;3.30;2.03;;;;;;;;;;4994465;28;20446;-61
2022/04/17 12:47:36;;;;;;;3.30;1.80;;;;;;;;;;4994108;28;20030;-62
2022/04/17 12:50:11;;;;;;;5.03;2.17;;;;;;;;;;4993947;28;20375;-60
2022/04/17 12:52:37;;;;;;;4.30;2.08;;;;;;;;;;4994425;28;20045;-61
2022/04/17 12:55:09;;;;;;;4.28;2.25;;;;;;;;;;4994111;28;20117;-62
2022/04/17 12:57:35;;;;;;;6.07;2.50;;;;;;;;;;4994013;28;20030;-60
2022/04/17 13:00:00;;;;;;;3.60;2.40;;;;;;;;;;4993902;28;20057;-63
2022/04/17 13:02:27;;;;;;;3.88;2.28;;;;;;;;;;4994049;28;20034;-61
2022/04/17 13:04:54;;;;;;;5.15;2.90;;;;;;;;;;4993905;28;20046;-60
2022/04/17 13:07:20;;;;;;;4.18;2.40;;;;;;;;;;4993834;28;20026;-61
2022/04/17 13:09:54;;;;;;;5.30;2.28;;;;;;;;;;4993474;28;20026;-61
2022/04/17 13:12:32;;;;;;;7.60;4.70;;;;;;;;;;4993707;28;20027;-62
2022/04/17 13:14:58;;;;;;;3.75;2.20;;;;;;;;;;4993349;28;20030;-61
2022/04/17 13:17:24;;;;;;;4.75;2.80;;;;;;;;;;4993780;28;20427;-63
2022/04/17 13:19:49;;;;;;;4.22;2.25;;;;;;;;;;4993631;28;20018;-64
2022/04/17 13:22:15;;;;;;;4.43;2.53;;;;;;;;;;4993695;28;20480;-63
2022/04/17 13:24:43;;;;;;;5.30;2.63;;;;;;;;;;4993574;28;20026;-62
2022/04/17 13:27:09;;;;;;;6.30;2.70;;;;;;;;;;4993213;28;20036;-61
2022/04/17 13:29:34;;;;;;;7.47;4.55;;;;;;;;;;4993245;28;20019;-63
2022/04/17 13:32:00;;;;;;;139.95;56.60;;;;;;;;;;4993424;28;20026;-64
2022/04/17 13:34:25;;;;;;;238.57;98.13;;;;;;;;;;4993245;28;20037;-62
2022/04/17 13:38:10;;;;;;;8.60;3.47;;;;;;;;;;4993500;28;20026;-63
2022/04/17 13:39:36;;;;;;;5.18;2.90;;;;;;;;;;4993064;28;20030;-63
2022/04/17 13:42:02;;;;;;;5.72;4.70;;;;;;;;;;4993281;28;20085;-62
2022/04/17 13:44:27;;;;;;;6.45;3.85;;;;;;;;;;4992971;28;20519;-62
2022/04/17 13:46:53;;;;;;;5.95;3.58;;;;;;;;;;4993179;28;20022;-60
2022/04/17 13:49:18;;;;;;;9.48;3.88;;;;;;;;;;4993074;28;20026;-63
2022/04/17 13:51:44;;;;;;;7.70;3.50;;;;;;;;;;4992716;28;20033;-63
2022/04/17 13:54:11;;;;;;;4.28;2.72;;;;;;;;;;4992949;28;20164;-61
2022/04/17 13:56:36;;;;;;;4.05;2.30;;;;;;;;;;4993089;28;20022;-61
2022/04/17 13:59:05;;;;;;;4.13;2.55;;;;;;;;;;4992878;28;20077;-64
2022/04/17 14:01:31;;;;;;;4.65;2.38;;;;;;;;;;4992243;28;20395;-61
2022/04/17 14:03:58;;;;;;;4.88;3.00;;;;;;;;;;4992650;28;20046;-63
2022/04/17 14:06:24;;;;;;;3.88;2.60;;;;;;;;;;4992888;28;20022;-63
2022/04/17 14:08:51;;;;;;;39.90;19.20;;;;;;;;;;4992794;28;20486;-60
2022/04/17 14:11:17;;;;;;;17.23;7.82;;;;;;;;;;4992719;28;20038;-61
2022/04/17 14:13:43;;;;;;;9.27;4.72;;;;;;;;;;4992356;28;20038;-61
2022/04/17 14:16:08;;;;;;;10.50;6.40;;;;;;;;;;4992694;28;20396;-61
2022/04/17 14:18:34;;;;;;;8.90;3.55;;;;;;;;;;4992560;28;20026;-62
2022/04/17 14:21:00;;;;;;;8.73;6.28;;;;;;;;;;4992693;28;20026;-61
2022/04/17 14:23:25;;;;;;;4.07;2.63;;;;;;;;;;4992478;28;20026;-62
2022/04/17 14:25:51;;;;;;;22.73;12.05;;;;;;;;;;4992472;28;20018;-63
2022/04/17 14:28:18;;;;;;;4.20;2.38;;;;;;;;;;4992203;28;20100;-63
2022/04/17 14:30:43;;;;;;;4.00;2.78;;;;;;;;;;4992763;28;20022;-65
2022/04/17 14:33:09;;;;;;;4.43;2.75;;;;;;;;;;4992340;28;20060;-61
2022/04/17 14:35:35;;;;;;;5.53;2.53;;;;;;;;;;4992062;28;20101;-64
2022/04/17 14:38:00;;;;;;;5.95;3.80;;;;;;;;;;4998452;28;20030;-63
2022/04/17 14:40:26;;;;;;;4.90;2.95;;;;;;;;;;5010825;28;20120;-63
2022/04/17 14:42:51;;;;;;;6.28;3.67;;;;;;;;;;4992181;28;20524;-61
2022/04/17 14:45:27;;;;;;;5.20;2.58;;;;;;;;;;4992174;28;20026;-64
2022/04/17 14:47:54;;;;;;;4.78;2.60;;;;;;;;;;4991868;28;20034;-64
2022/04/17 14:50:21;;;;;;;5.07;2.97;;;;;;;;;;4992167;28;20025;-61
2022/04/17 14:52:48;;;;;;;3.92;2.45;;;;;;;;;;4992037;28;20395;-61
2022/04/17 14:55:14;;;;;;;4.70;2.83;;;;;;;;;;4991757;28;20034;-65
2022/04/17 14:57:40;;;;;;;6.88;3.78;;;;;;;;;;4991384;28;20034;-61
2022/04/17 15:00:09;;;;;;;6.72;3.40;;;;;;;;;;4991925;28;20027;-61
2022/04/17 15:02:36;;;;;;;5.50;2.92;;;;;;;;;;4991887;28;20399;-63